sensor_id;sensor_type;location;lat;lon;timestamp;temperature;humidity
56234;DHT22;42141;53.240;6.580;2022-12-18T00:01:00;-3.00;99.90
56234;DHT22;42141;53.240;6.580;2022-12-18T00:03:26;-3.00;99.90
56234;DHT22;42141;53.240;6.580;2022-12-18T00:05:52;-3.00;99.90
56234;DHT22;42141;53.240;6.580;2022-12-18T00:08:18;-3.00;99.90
56234;DHT22;42141;53.240;6.580;2022-12-18T00:10:44;-3.00;99.90
56234;DHT22;42141;53.240;6.580;2022-12-18T00:13:11;-3.00;99.90
56234;DHT22;42141;53.240;6.580;2022-12-18T00:15:38;-3.00;99.90
56234;DHT22;42141;53.240;6.580;2022-12-18T00:18:05;-1.80;99.90
56234;DHT22;42141;53.240;6.580;2022-12-18T00:20:31;-3.00;99.90
56234;DHT22;42141;53.240;6.580;2022-12-18T00:22:56;-3.00;99.90
56234;DHT22;42141;53.240;6.580;2022-12-18T00:25:22;-3.00;99.90
56234;DHT22;42141;53.240;6.580;2022-12-18T00:27:48;-3.10;99.90
56234;DHT22;42141;53.240;6.580;2022-12-18T00:30:14;-3.10;99.90
56234;DHT22;42141;53.240;6.580;2022-12-18T00:32:40;-3.10;99.90
56234;DHT22;42141;53.240;6.580;2022-12-18T00:35:07;-3.80;99.90
56234;DHT22;42141;53.240;6.580;2022-12-18T00:37:35;-3.20;99.90
56234;DHT22;42141;53.240;6.580;2022-12-18T00:40:02;-3.20;99.90
56234;DHT22;42141;53.240;6.580;2022-12-18T00:42:28;-3.20;99.90
56234;DHT22;42141;53.240;6.580;2022-12-18T00:45:12;-3.20;99.90
56234;DHT22;42141;53.240;6.580;2022-12-18T00:47:38;-3.20;99.90
56234;DHT22;42141;53.240;6.580;2022-12-18T00:50:04;-3.20;99.90
56234;DHT22;42141;53.240;6.580;2022-12-18T00:52:29;-3.20;99.90
56234;DHT22;42141;53.240;6.580;2022-12-18T00:54:55;-3.20;99.90
56234;DHT22;42141;53.240;6.580;2022-12-18T00:57:21;-3.30;99.90
56234;DHT22;42141;53.240;6.580;2022-12-18T00:59:46;-3.30;99.90
56234;DHT22;42141;53.240;6.580;2022-12-18T01:02:12;-3.30;99.90
56234;DHT22;42141;53.240;6.580;2022-12-18T01:04:38;-3.30;99.90
56234;DHT22;42141;53.240;6.580;2022-12-18T01:07:03;-3.30;99.90
56234;DHT22;42141;53.240;6.580;2022-12-18T01:09:29;-2.30;99.90
56234;DHT22;42141;53.240;6.580;2022-12-18T01:11:54;-3.30;99.90
56234;DHT22;42141;53.240;6.580;2022-12-18T01:14:20;-3.40;99.90
56234;DHT22;42141;53.240;6.580;2022-12-18T01:16:46;-3.40;99.90
56234;DHT22;42141;53.240;6.580;2022-12-18T01:19:12;-3.40;99.90
56234;DHT22;42141;53.240;6.580;2022-12-18T01:21:37;-3.40;99.90
56234;DHT22;42141;53.240;6.580;2022-12-18T01:24:03;-3.40;99.90
56234;DHT22;42141;53.240;6.580;2022-12-18T01:26:29;-3.40;99.90
56234;DHT22;42141;53.240;6.580;2022-12-18T01:28:56;-3.00;99.90
56234;DHT22;42141;53.240;6.580;2022-12-18T01:31:25;-3.50;99.90
56234;DHT22;42141;53.240;6.580;2022-12-18T01:33:51;-3.50;99.90
56234;DHT22;42141;53.240;6.580;2022-12-18T01:36:23;-3.50;99.90
56234;DHT22;42141;53.240;6.580;2022-12-18T01:38:50;-3.50;99.90
56234;DHT22;42141;53.240;6.580;2022-12-18T01:41:19;-3.50;99.90
56234;DHT22;42141;53.240;6.580;2022-12-18T01:43:52;-3.60;99.90
56234;DHT22;42141;53.240;6.580;2022-12-18T01:46:21;-3.60;99.90
56234;DHT22;42141;53.240;6.580;2022-12-18T01:48:50;-3.60;99.90
56234;DHT22;42141;53.240;6.580;2022-12-18T01:51:16;-3.60;99.90
56234;DHT22;42141;53.240;6.580;2022-12-18T01:53:44;-3.70;99.90
56234;DHT22;42141;53.240;6.580;2022-12-18T01:56:14;-3.60;99.90
56234;DHT22;42141;53.240;6.580;2022-12-18T01:59:01;-3.70;99.90
56234;DHT22;42141;53.240;6.580;2022-12-18T02:01:29;-3.70;99.90
56234;DHT22;42141;53.240;6.580;2022-12-18T02:03:55;-3.70;99.90
56234;DHT22;42141;53.240;6.580;2022-12-18T02:06:32;-3.90;99.90
56234;DHT22;42141;53.240;6.580;2022-12-18T02:09:15;-3.70;99.90
56234;DHT22;42141;53.240;6.580;2022-12-18T02:14:17;-3.70;99.90
56234;DHT22;42141;53.240;6.580;2022-12-18T02:16:57;-3.80;99.90
56234;DHT22;42141;53.240;6.580;2022-12-18T02:19:40;-3.80;99.90
56234;DHT22;42141;53.240;6.580;2022-12-18T02:27:22;-3.90;99.90
56234;DHT22;42141;53.240;6.580;2022-12-18T02:29:53;-4.00;99.90
56234;DHT22;42141;53.240;6.580;2022-12-18T02:32:24;-4.10;99.90
56234;DHT22;42141;53.240;6.580;2022-12-18T02:34:52;-4.10;99.90
56234;DHT22;42141;53.240;6.580;2022-12-18T02:37:19;-4.10;99.90
56234;DHT22;42141;53.240;6.580;2022-12-18T02:39:47;-4.10;99.90
56234;DHT22;42141;53.240;6.580;2022-12-18T02:42:14;-4.10;99.90
56234;DHT22;42141;53.240;6.580;2022-12-18T02:44:49;-4.10;99.90
56234;DHT22;42141;53.240;6.580;2022-12-18T02:47:18;-4.20;99.90
56234;DHT22;42141;53.240;6.580;2022-12-18T02:52:58;-4.20;99.90
56234;DHT22;42141;53.240;6.580;2022-12-18T02:58:36;-4.20;99.90
56234;DHT22;42141;53.240;6.580;2022-12-18T03:03:56;-4.20;99.90
56234;DHT22;42141;53.240;6.580;2022-12-18T03:06:33;-4.20;99.90
56234;DHT22;42141;53.240;6.580;2022-12-18T03:09:09;-4.20;99.90
56234;DHT22;42141;53.240;6.580;2022-12-18T03:11:40;-4.10;99.90
56234;DHT22;42141;53.240;6.580;2022-12-18T03:14:28;-4.30;99.90
56234;DHT22;42141;53.240;6.580;2022-12-18T03:17:01;-4.30;99.90
56234;DHT22;42141;53.240;6.580;2022-12-18T03:19:29;-4.30;99.90
56234;DHT22;42141;53.240;6.580;2022-12-18T03:21:58;-4.30;99.90
56234;DHT22;42141;53.240;6.580;2022-12-18T03:24:27;-4.30;99.90
56234;DHT22;42141;53.240;6.580;2022-12-18T03:26:59;-4.30;99.90
56234;DHT22;42141;53.240;6.580;2022-12-18T03:29:31;-4.30;99.90
56234;DHT22;42141;53.240;6.580;2022-12-18T03:32:03;-4.40;99.90
56234;DHT22;42141;53.240;6.580;2022-12-18T03:34:33;-4.40;99.90
56234;DHT22;42141;53.240;6.580;2022-12-18T03:37:00;-4.40;99.90
56234;DHT22;42141;53.240;6.580;2022-12-18T03:39:26;-4.40;99.90
56234;DHT22;42141;53.240;6.580;2022-12-18T03:42:14;-4.40;99.90
56234;DHT22;42141;53.240;6.580;2022-12-18T03:50:18;-4.50;99.90
56234;DHT22;42141;53.240;6.580;2022-12-18T03:52:56;-4.50;99.90
56234;DHT22;42141;53.240;6.580;2022-12-18T03:55:24;-4.50;99.90
56234;DHT22;42141;53.240;6.580;2022-12-18T03:57:52;-4.50;99.90
56234;DHT22;42141;53.240;6.580;2022-12-18T04:00:19;-4.50;99.90
56234;DHT22;42141;53.240;6.580;2022-12-18T04:02:53;-4.50;99.90
56234;DHT22;42141;53.240;6.580;2022-12-18T04:05:22;-4.60;99.90
56234;DHT22;42141;53.240;6.580;2022-12-18T04:07:49;-4.50;99.90
56234;DHT22;42141;53.240;6.580;2022-12-18T04:10:18;-4.60;99.90
56234;DHT22;42141;53.240;6.580;2022-12-18T04:12:44;-4.40;99.90
56234;DHT22;42141;53.240;6.580;2022-12-18T04:15:10;-4.60;99.90
56234;DHT22;42141;53.240;6.580;2022-12-18T04:17:37;-4.60;99.90
56234;DHT22;42141;53.240;6.580;2022-12-18T04:20:05;-4.60;99.90
56234;DHT22;42141;53.240;6.580;2022-12-18T04:22:30;-4.60;99.90
56234;DHT22;42141;53.240;6.580;2022-12-18T04:24:56;-4.60;99.90
56234;DHT22;42141;53.240;6.580;2022-12-18T04:27:22;-4.70;99.90
56234;DHT22;42141;53.240;6.580;2022-12-18T04:29:47;-4.70;99.90
56234;DHT22;42141;53.240;6.580;2022-12-18T04:32:13;-4.70;99.90
56234;DHT22;42141;53.240;6.580;2022-12-18T04:34:39;-4.70;99.90
56234;DHT22;42141;53.240;6.580;2022-12-18T04:37:04;-4.70;99.90
56234;DHT22;42141;53.240;6.580;2022-12-18T04:39:30;-4.70;99.90
56234;DHT22;42141;53.240;6.580;2022-12-18T04:41:55;-4.70;99.90
56234;DHT22;42141;53.240;6.580;2022-12-18T04:44:21;-4.70;99.90
56234;DHT22;42141;53.240;6.580;2022-12-18T04:46:47;-4.70;99.90
56234;DHT22;42141;53.240;6.580;2022-12-18T04:49:12;-4.70;99.90
56234;DHT22;42141;53.240;6.580;2022-12-18T04:51:38;-4.70;99.90
56234;DHT22;42141;53.240;6.580;2022-12-18T04:54:04;-4.80;99.90
56234;DHT22;42141;53.240;6.580;2022-12-18T04:56:31;-4.70;99.90
56234;DHT22;42141;53.240;6.580;2022-12-18T04:58:57;-4.70;99.90
56234;DHT22;42141;53.240;6.580;2022-12-18T05:01:22;-4.70;99.90
56234;DHT22;42141;53.240;6.580;2022-12-18T05:03:48;-4.70;99.90
56234;DHT22;42141;53.240;6.580;2022-12-18T05:06:14;-4.70;99.90
56234;DHT22;42141;53.240;6.580;2022-12-18T05:08:40;-5.00;99.90
56234;DHT22;42141;53.240;6.580;2022-12-18T05:11:11;-4.70;99.90
56234;DHT22;42141;53.240;6.580;2022-12-18T05:13:37;-4.70;99.90
56234;DHT22;42141;53.240;6.580;2022-12-18T05:16:03;-4.70;99.90
56234;DHT22;42141;53.240;6.580;2022-12-18T05:18:30;-4.70;99.90
56234;DHT22;42141;53.240;6.580;2022-12-18T05:20:55;-4.70;99.90
56234;DHT22;42141;53.240;6.580;2022-12-18T05:23:22;-4.70;99.90
56234;DHT22;42141;53.240;6.580;2022-12-18T05:25:51;-4.70;99.90
56234;DHT22;42141;53.240;6.580;2022-12-18T05:28:18;-4.70;99.90
56234;DHT22;42141;53.240;6.580;2022-12-18T05:30:50;-4.70;99.90
56234;DHT22;42141;53.240;6.580;2022-12-18T05:33:17;-4.70;99.90
56234;DHT22;42141;53.240;6.580;2022-12-18T05:35:44;-4.80;99.90
56234;DHT22;42141;53.240;6.580;2022-12-18T05:38:10;-4.80;99.90
56234;DHT22;42141;53.240;6.580;2022-12-18T05:40:42;-4.80;99.90
56234;DHT22;42141;53.240;6.580;2022-12-18T05:43:09;-4.80;99.90
56234;DHT22;42141;53.240;6.580;2022-12-18T05:45:39;-4.80;99.90
56234;DHT22;42141;53.240;6.580;2022-12-18T05:48:06;-4.80;99.90
56234;DHT22;42141;53.240;6.580;2022-12-18T05:50:39;-4.80;99.90
56234;DHT22;42141;53.240;6.580;2022-12-18T05:53:05;-4.90;99.90
56234;DHT22;42141;53.240;6.580;2022-12-18T05:55:39;-4.80;99.90
56234;DHT22;42141;53.240;6.580;2022-12-18T05:58:06;-4.90;99.90
56234;DHT22;42141;53.240;6.580;2022-12-18T06:00:33;-4.90;99.90
56234;DHT22;42141;53.240;6.580;2022-12-18T06:03:00;-4.90;99.90
56234;DHT22;42141;53.240;6.580;2022-12-18T06:05:26;-4.90;99.90
56234;DHT22;42141;53.240;6.580;2022-12-18T06:07:52;-4.90;99.90
56234;DHT22;42141;53.240;6.580;2022-12-18T06:10:18;-4.90;99.90
56234;DHT22;42141;53.240;6.580;2022-12-18T06:12:44;-4.90;99.90
56234;DHT22;42141;53.240;6.580;2022-12-18T06:15:10;-4.90;99.90
56234;DHT22;42141;53.240;6.580;2022-12-18T06:17:36;-4.90;99.90
56234;DHT22;42141;53.240;6.580;2022-12-18T06:20:03;-4.90;99.90
56234;DHT22;42141;53.240;6.580;2022-12-18T06:22:31;-5.00;99.90
56234;DHT22;42141;53.240;6.580;2022-12-18T06:24:57;-4.90;99.90
56234;DHT22;42141;53.240;6.580;2022-12-18T06:27:23;-5.00;99.90
56234;DHT22;42141;53.240;6.580;2022-12-18T06:29:48;-5.00;99.90
56234;DHT22;42141;53.240;6.580;2022-12-18T06:32:14;-4.90;99.90
56234;DHT22;42141;53.240;6.580;2022-12-18T06:34:40;-5.00;99.90
56234;DHT22;42141;53.240;6.580;2022-12-18T06:37:05;-5.00;99.90
56234;DHT22;42141;53.240;6.580;2022-12-18T06:39:31;-5.00;99.90
56234;DHT22;42141;53.240;6.580;2022-12-18T06:41:57;-5.00;99.90
56234;DHT22;42141;53.240;6.580;2022-12-18T06:44:22;-5.10;99.90
56234;DHT22;42141;53.240;6.580;2022-12-18T06:46:48;-5.10;99.90
56234;DHT22;42141;53.240;6.580;2022-12-18T06:49:14;-5.10;99.90
56234;DHT22;42141;53.240;6.580;2022-12-18T06:51:41;-5.10;99.90
56234;DHT22;42141;53.240;6.580;2022-12-18T06:54:07;-5.20;99.90
56234;DHT22;42141;53.240;6.580;2022-12-18T06:56:33;-5.20;99.90
56234;DHT22;42141;53.240;6.580;2022-12-18T06:58:59;-5.20;99.90
56234;DHT22;42141;53.240;6.580;2022-12-18T07:01:24;-5.20;99.90
56234;DHT22;42141;53.240;6.580;2022-12-18T07:03:55;-5.20;99.90
56234;DHT22;42141;53.240;6.580;2022-12-18T07:06:23;-5.20;99.90
56234;DHT22;42141;53.240;6.580;2022-12-18T07:08:50;-5.20;99.90
56234;DHT22;42141;53.240;6.580;2022-12-18T07:11:16;-5.30;99.90
56234;DHT22;42141;53.240;6.580;2022-12-18T07:13:44;-5.20;99.90
56234;DHT22;42141;53.240;6.580;2022-12-18T07:16:15;-5.30;99.90
56234;DHT22;42141;53.240;6.580;2022-12-18T07:18:41;-5.30;99.90
56234;DHT22;42141;53.240;6.580;2022-12-18T07:21:09;-5.30;99.90
56234;DHT22;42141;53.240;6.580;2022-12-18T07:23:35;-5.30;99.90
56234;DHT22;42141;53.240;6.580;2022-12-18T07:26:06;-5.30;99.90
56234;DHT22;42141;53.240;6.580;2022-12-18T07:28:33;-5.30;99.90
56234;DHT22;42141;53.240;6.580;2022-12-18T07:31:17;-5.30;99.90
56234;DHT22;42141;53.240;6.580;2022-12-18T07:33:43;-5.30;99.90
56234;DHT22;42141;53.240;6.580;2022-12-18T07:36:10;-5.20;99.90
56234;DHT22;42141;53.240;6.580;2022-12-18T07:38:36;-5.20;99.90
56234;DHT22;42141;53.240;6.580;2022-12-18T07:41:03;-5.20;99.90
56234;DHT22;42141;53.240;6.580;2022-12-18T07:43:29;-4.90;99.90
56234;DHT22;42141;53.240;6.580;2022-12-18T07:45:54;-5.20;99.90
56234;DHT22;42141;53.240;6.580;2022-12-18T07:48:20;-5.20;99.90
56234;DHT22;42141;53.240;6.580;2022-12-18T07:50:46;-5.20;99.90
56234;DHT22;42141;53.240;6.580;2022-12-18T07:53:12;-5.20;99.90
56234;DHT22;42141;53.240;6.580;2022-12-18T07:55:37;-5.20;99.90
56234;DHT22;42141;53.240;6.580;2022-12-18T07:58:04;-5.20;99.90
56234;DHT22;42141;53.240;6.580;2022-12-18T08:00:30;-5.20;99.90
56234;DHT22;42141;53.240;6.580;2022-12-18T08:02:57;-5.20;99.90
56234;DHT22;42141;53.240;6.580;2022-12-18T08:05:23;-5.20;99.90
56234;DHT22;42141;53.240;6.580;2022-12-18T08:07:49;-5.20;99.90
56234;DHT22;42141;53.240;6.580;2022-12-18T08:10:15;-5.20;99.90
56234;DHT22;42141;53.240;6.580;2022-12-18T08:12:40;-5.20;99.90
56234;DHT22;42141;53.240;6.580;2022-12-18T08:15:06;-5.20;99.90
56234;DHT22;42141;53.240;6.580;2022-12-18T08:17:32;-5.20;99.90
56234;DHT22;42141;53.240;6.580;2022-12-18T08:19:58;-5.20;99.90
56234;DHT22;42141;53.240;6.580;2022-12-18T08:22:24;-5.20;99.90
56234;DHT22;42141;53.240;6.580;2022-12-18T08:24:49;-5.10;99.90
56234;DHT22;42141;53.240;6.580;2022-12-18T08:27:15;-5.10;99.90
56234;DHT22;42141;53.240;6.580;2022-12-18T08:29:41;-5.10;99.90
56234;DHT22;42141;53.240;6.580;2022-12-18T08:32:07;-5.10;99.90
56234;DHT22;42141;53.240;6.580;2022-12-18T08:34:33;-5.70;99.90
56234;DHT22;42141;53.240;6.580;2022-12-18T08:36:58;-3.90;99.90
56234;DHT22;42141;53.240;6.580;2022-12-18T08:39:24;-5.00;99.90
56234;DHT22;42141;53.240;6.580;2022-12-18T08:41:50;-5.00;99.90
56234;DHT22;42141;53.240;6.580;2022-12-18T08:44:34;-5.00;99.90
56234;DHT22;42141;53.240;6.580;2022-12-18T08:47:03;-5.00;99.90
56234;DHT22;42141;53.240;6.580;2022-12-18T08:49:28;-5.00;99.90
56234;DHT22;42141;53.240;6.580;2022-12-18T08:51:55;-5.00;99.90
56234;DHT22;42141;53.240;6.580;2022-12-18T08:54:22;-5.00;99.90
56234;DHT22;42141;53.240;6.580;2022-12-18T08:56:48;-5.00;99.90
56234;DHT22;42141;53.240;6.580;2022-12-18T08:59:15;-4.90;99.90
56234;DHT22;42141;53.240;6.580;2022-12-18T09:01:46;-4.90;99.90
56234;DHT22;42141;53.240;6.580;2022-12-18T09:04:12;-4.90;99.90
56234;DHT22;42141;53.240;6.580;2022-12-18T09:06:38;-4.90;99.90
56234;DHT22;42141;53.240;6.580;2022-12-18T09:09:04;-4.80;99.90
56234;DHT22;42141;53.240;6.580;2022-12-18T09:11:31;-4.80;99.90
56234;DHT22;42141;53.240;6.580;2022-12-18T09:13:58;-4.70;99.90
56234;DHT22;42141;53.240;6.580;2022-12-18T09:16:26;-4.70;99.90
56234;DHT22;42141;53.240;6.580;2022-12-18T09:18:54;-4.60;99.90
56234;DHT22;42141;53.240;6.580;2022-12-18T09:21:26;-4.60;99.90
56234;DHT22;42141;53.240;6.580;2022-12-18T09:23:54;-4.50;99.90
56234;DHT22;42141;53.240;6.580;2022-12-18T09:26:22;-4.50;99.90
56234;DHT22;42141;53.240;6.580;2022-12-18T09:28:48;-4.40;99.90
56234;DHT22;42141;53.240;6.580;2022-12-18T09:31:14;-4.30;99.90
56234;DHT22;42141;53.240;6.580;2022-12-18T09:33:40;-4.30;99.90
56234;DHT22;42141;53.240;6.580;2022-12-18T09:36:08;-4.20;99.90
56234;DHT22;42141;53.240;6.580;2022-12-18T09:38:34;-4.10;99.90
56234;DHT22;42141;53.240;6.580;2022-12-18T09:41:17;-4.00;99.90
56234;DHT22;42141;53.240;6.580;2022-12-18T09:43:51;-4.00;99.90
56234;DHT22;42141;53.240;6.580;2022-12-18T09:46:20;-3.80;99.90
56234;DHT22;42141;53.240;6.580;2022-12-18T09:48:50;-3.80;99.90
56234;DHT22;42141;53.240;6.580;2022-12-18T09:51:57;-3.70;99.90
56234;DHT22;42141;53.240;6.580;2022-12-18T09:54:18;-3.70;99.90
56234;DHT22;42141;53.240;6.580;2022-12-18T09:56:45;-2.80;99.90
56234;DHT22;42141;53.240;6.580;2022-12-18T09:59:35;-3.60;99.90
56234;DHT22;42141;53.240;6.580;2022-12-18T10:04:41;-3.60;99.90
56234;DHT22;42141;53.240;6.580;2022-12-18T10:07:26;-3.60;99.90
56234;DHT22;42141;53.240;6.580;2022-12-18T10:10:04;-3.60;99.90
56234;DHT22;42141;53.240;6.580;2022-12-18T10:20:58;-3.20;99.90
56234;DHT22;42141;53.240;6.580;2022-12-18T10:23:32;-3.10;99.90
56234;DHT22;42141;53.240;6.580;2022-12-18T10:26:05;-3.10;99.90
56234;DHT22;42141;53.240;6.580;2022-12-18T10:28:33;-2.90;99.90
56234;DHT22;42141;53.240;6.580;2022-12-18T10:31:00;-2.80;99.90
56234;DHT22;42141;53.240;6.580;2022-12-18T10:33:29;-2.60;99.90
56234;DHT22;42141;53.240;6.580;2022-12-18T10:35:56;-2.50;99.90
56234;DHT22;42141;53.240;6.580;2022-12-18T10:38:26;-2.50;99.90
56234;DHT22;42141;53.240;6.580;2022-12-18T10:41:00;-2.50;99.90
56234;DHT22;42141;53.240;6.580;2022-12-18T10:43:31;-2.50;99.90
56234;DHT22;42141;53.240;6.580;2022-12-18T10:51:27;-2.50;99.90
56234;DHT22;42141;53.240;6.580;2022-12-18T10:54:17;-2.50;99.90
56234;DHT22;42141;53.240;6.580;2022-12-18T10:56:44;-2.50;99.90
56234;DHT22;42141;53.240;6.580;2022-12-18T10:59:13;-2.50;99.90
56234;DHT22;42141;53.240;6.580;2022-12-18T11:01:56;-2.50;99.90
56234;DHT22;42141;53.240;6.580;2022-12-18T11:04:28;-2.40;99.90
56234;DHT22;42141;53.240;6.580;2022-12-18T11:07:00;-2.40;99.90
56234;DHT22;42141;53.240;6.580;2022-12-18T11:09:40;-2.40;99.90
56234;DHT22;42141;53.240;6.580;2022-12-18T11:12:20;-2.30;99.90
56234;DHT22;42141;53.240;6.580;2022-12-18T11:14:53;-2.30;99.90
56234;DHT22;42141;53.240;6.580;2022-12-18T11:17:31;-2.20;99.90
56234;DHT22;42141;53.240;6.580;2022-12-18T11:19:59;-2.10;99.90
56234;DHT22;42141;53.240;6.580;2022-12-18T11:24:59;-2.10;99.90
56234;DHT22;42141;53.240;6.580;2022-12-18T11:27:26;-2.00;99.90
56234;DHT22;42141;53.240;6.580;2022-12-18T11:30:40;-2.00;99.90
56234;DHT22;42141;53.240;6.580;2022-12-18T11:33:05;-1.90;99.90
56234;DHT22;42141;53.240;6.580;2022-12-18T11:35:47;-1.80;99.90
56234;DHT22;42141;53.240;6.580;2022-12-18T11:38:22;-1.80;99.90
56234;DHT22;42141;53.240;6.580;2022-12-18T11:43:45;-1.70;99.90
56234;DHT22;42141;53.240;6.580;2022-12-18T11:46:38;-1.60;99.90
56234;DHT22;42141;53.240;6.580;2022-12-18T11:49:14;-1.60;99.90
56234;DHT22;42141;53.240;6.580;2022-12-18T11:51:50;-1.20;99.90
56234;DHT22;42141;53.240;6.580;2022-12-18T11:54:16;-1.50;99.90
56234;DHT22;42141;53.240;6.580;2022-12-18T11:56:57;-1.30;99.90
56234;DHT22;42141;53.240;6.580;2022-12-18T11:59:40;-1.50;99.90
56234;DHT22;42141;53.240;6.580;2022-12-18T12:21:44;-1.30;99.90
56234;DHT22;42141;53.240;6.580;2022-12-18T12:24:53;-1.30;99.90
56234;DHT22;42141;53.240;6.580;2022-12-18T12:30:24;-1.20;99.90
56234;DHT22;42141;53.240;6.580;2022-12-18T12:38:37;-1.20;99.90
56234;DHT22;42141;53.240;6.580;2022-12-18T12:41:09;-1.10;99.90
56234;DHT22;42141;53.240;6.580;2022-12-18T12:44:00;-1.10;99.90
56234;DHT22;42141;53.240;6.580;2022-12-18T12:46:27;-1.10;99.90
56234;DHT22;42141;53.240;6.580;2022-12-18T12:48:56;-1.10;99.90
56234;DHT22;42141;53.240;6.580;2022-12-18T12:51:38;-1.00;99.90
56234;DHT22;42141;53.240;6.580;2022-12-18T12:54:17;-1.00;99.90
56234;DHT22;42141;53.240;6.580;2022-12-18T12:56:57;-1.00;99.90
56234;DHT22;42141;53.240;6.580;2022-12-18T13:03:12;-1.00;99.90
56234;DHT22;42141;53.240;6.580;2022-12-18T13:06:16;-0.90;99.90
56234;DHT22;42141;53.240;6.580;2022-12-18T13:08:55;-0.90;99.90
56234;DHT22;42141;53.240;6.580;2022-12-18T13:11:40;-0.90;99.90
56234;DHT22;42141;53.240;6.580;2022-12-18T13:14:32;-0.80;99.90
56234;DHT22;42141;53.240;6.580;2022-12-18T13:22:36;-0.20;99.90
56234;DHT22;42141;53.240;6.580;2022-12-18T13:25:21;-0.70;99.90
56234;DHT22;42141;53.240;6.580;2022-12-18T13:38:33;0.50;99.90
56234;DHT22;42141;53.240;6.580;2022-12-18T13:41:01;-0.60;99.90
56234;DHT22;42141;53.240;6.580;2022-12-18T13:43:39;-0.30;99.90
56234;DHT22;42141;53.240;6.580;2022-12-18T13:51:19;-0.60;99.90
56234;DHT22;42141;53.240;6.580;2022-12-18T13:53:56;-0.60;99.90
56234;DHT22;42141;53.240;6.580;2022-12-18T13:56:29;-0.60;99.90
56234;DHT22;42141;53.240;6.580;2022-12-18T13:59:12;-0.60;99.90
56234;DHT22;42141;53.240;6.580;2022-12-18T14:04:28;-0.60;99.90
56234;DHT22;42141;53.240;6.580;2022-12-18T14:07:13;-0.60;99.90
56234;DHT22;42141;53.240;6.580;2022-12-18T14:09:42;0.60;99.90
56234;DHT22;42141;53.240;6.580;2022-12-18T14:15:02;-0.60;99.90
56234;DHT22;42141;53.240;6.580;2022-12-18T14:17:28;-0.60;99.90
56234;DHT22;42141;53.240;6.580;2022-12-18T14:19:54;-0.60;99.90
56234;DHT22;42141;53.240;6.580;2022-12-18T14:22:23;-0.60;99.90
56234;DHT22;42141;53.240;6.580;2022-12-18T14:25:27;-0.60;99.90
56234;DHT22;42141;53.240;6.580;2022-12-18T14:28:13;0.50;99.90
56234;DHT22;42141;53.240;6.580;2022-12-18T14:30:42;0.70;99.90
56234;DHT22;42141;53.240;6.580;2022-12-18T14:35:36;-0.70;99.90
56234;DHT22;42141;53.240;6.580;2022-12-18T14:40:58;-0.70;99.90
56234;DHT22;42141;53.240;6.580;2022-12-18T14:43:25;-0.80;99.90
56234;DHT22;42141;53.240;6.580;2022-12-18T14:45:51;-0.20;99.90
56234;DHT22;42141;53.240;6.580;2022-12-18T14:48:38;-0.80;99.90
56234;DHT22;42141;53.240;6.580;2022-12-18T14:51:20;-0.80;99.90
56234;DHT22;42141;53.240;6.580;2022-12-18T14:53:57;-0.80;99.90
56234;DHT22;42141;53.240;6.580;2022-12-18T14:56:34;-0.80;99.90
56234;DHT22;42141;53.240;6.580;2022-12-18T14:59:19;-0.80;99.90
56234;DHT22;42141;53.240;6.580;2022-12-18T15:04:39;-0.80;99.90
56234;DHT22;42141;53.240;6.580;2022-12-18T15:07:11;-0.60;99.90
56234;DHT22;42141;53.240;6.580;2022-12-18T15:09:39;-0.90;99.90
56234;DHT22;42141;53.240;6.580;2022-12-18T15:12:05;-0.80;99.90
56234;DHT22;42141;53.240;6.580;2022-12-18T15:17:06;-0.80;99.90
56234;DHT22;42141;53.240;6.580;2022-12-18T15:19:42;-0.90;99.90
56234;DHT22;42141;53.240;6.580;2022-12-18T15:22:46;-0.90;99.90
56234;DHT22;42141;53.240;6.580;2022-12-18T15:25:35;0.10;99.90
56234;DHT22;42141;53.240;6.580;2022-12-18T15:28:26;-0.90;99.90
56234;DHT22;42141;53.240;6.580;2022-12-18T15:33:43;-1.00;99.90
56234;DHT22;42141;53.240;6.580;2022-12-18T15:36:14;-1.00;99.90
56234;DHT22;42141;53.240;6.580;2022-12-18T15:38:40;-1.10;99.90
56234;DHT22;42141;53.240;6.580;2022-12-18T15:41:06;-1.10;99.90
56234;DHT22;42141;53.240;6.580;2022-12-18T15:43:37;-1.20;99.90
56234;DHT22;42141;53.240;6.580;2022-12-18T15:46:15;-1.10;99.90
56234;DHT22;42141;53.240;6.580;2022-12-18T15:48:46;-1.20;99.90
56234;DHT22;42141;53.240;6.580;2022-12-18T15:51:18;-1.20;99.90
56234;DHT22;42141;53.240;6.580;2022-12-18T15:53:46;-1.30;99.90
56234;DHT22;42141;53.240;6.580;2022-12-18T15:56:13;-1.20;99.90
56234;DHT22;42141;53.240;6.580;2022-12-18T15:58:58;-1.30;99.90
56234;DHT22;42141;53.240;6.580;2022-12-18T16:01:28;-1.30;99.90
56234;DHT22;42141;53.240;6.580;2022-12-18T16:03:54;-1.30;99.90
56234;DHT22;42141;53.240;6.580;2022-12-18T16:06:24;-1.30;99.90
56234;DHT22;42141;53.240;6.580;2022-12-18T16:08:50;-1.30;99.90
56234;DHT22;42141;53.240;6.580;2022-12-18T16:11:25;-1.30;99.90
56234;DHT22;42141;53.240;6.580;2022-12-18T16:14:05;-1.30;99.90
56234;DHT22;42141;53.240;6.580;2022-12-18T16:16:31;-1.30;99.90
56234;DHT22;42141;53.240;6.580;2022-12-18T16:18:57;-1.30;99.90
56234;DHT22;42141;53.240;6.580;2022-12-18T16:21:22;-1.30;99.90
56234;DHT22;42141;53.240;6.580;2022-12-18T16:23:48;-1.30;99.90
56234;DHT22;42141;53.240;6.580;2022-12-18T16:26:14;-1.30;99.90
56234;DHT22;42141;53.240;6.580;2022-12-18T16:28:39;-0.40;99.90
56234;DHT22;42141;53.240;6.580;2022-12-18T16:31:05;-1.30;99.90
56234;DHT22;42141;53.240;6.580;2022-12-18T16:33:31;-1.30;99.90
56234;DHT22;42141;53.240;6.580;2022-12-18T16:35:56;-1.30;99.90
56234;DHT22;42141;53.240;6.580;2022-12-18T16:38:22;-1.30;99.90
56234;DHT22;42141;53.240;6.580;2022-12-18T16:40:48;0.00;99.90
56234;DHT22;42141;53.240;6.580;2022-12-18T16:43:32;-1.30;99.90
56234;DHT22;42141;53.240;6.580;2022-12-18T16:45:58;-1.30;99.90
56234;DHT22;42141;53.240;6.580;2022-12-18T16:48:24;-0.60;99.90
56234;DHT22;42141;53.240;6.580;2022-12-18T16:50:50;-1.20;99.90
56234;DHT22;42141;53.240;6.580;2022-12-18T16:53:24;-1.20;99.90
56234;DHT22;42141;53.240;6.580;2022-12-18T16:55:57;-1.20;99.90
56234;DHT22;42141;53.240;6.580;2022-12-18T16:58:22;-1.00;99.90
56234;DHT22;42141;53.240;6.580;2022-12-18T17:00:48;-1.20;99.90
56234;DHT22;42141;53.240;6.580;2022-12-18T17:03:14;-1.10;99.90
56234;DHT22;42141;53.240;6.580;2022-12-18T17:05:39;-1.10;99.90
56234;DHT22;42141;53.240;6.580;2022-12-18T17:08:05;-1.10;99.90
56234;DHT22;42141;53.240;6.580;2022-12-18T17:10:33;-1.10;99.90
56234;DHT22;42141;53.240;6.580;2022-12-18T17:12:59;-1.10;99.90
56234;DHT22;42141;53.240;6.580;2022-12-18T17:15:25;-1.00;99.90
56234;DHT22;42141;53.240;6.580;2022-12-18T17:17:51;-1.10;99.90
56234;DHT22;42141;53.240;6.580;2022-12-18T17:20:17;-1.00;99.90
56234;DHT22;42141;53.240;6.580;2022-12-18T17:22:42;-1.00;99.90
56234;DHT22;42141;53.240;6.580;2022-12-18T17:25:08;-1.00;99.90
56234;DHT22;42141;53.240;6.580;2022-12-18T17:27:34;-1.00;99.90
56234;DHT22;42141;53.240;6.580;2022-12-18T17:30:00;-1.00;99.90
56234;DHT22;42141;53.240;6.580;2022-12-18T17:32:25;-1.00;99.90
56234;DHT22;42141;53.240;6.580;2022-12-18T17:34:52;-1.00;99.90
56234;DHT22;42141;53.240;6.580;2022-12-18T17:37:17;-1.00;99.90
56234;DHT22;42141;53.240;6.580;2022-12-18T17:39:43;-1.00;99.90
56234;DHT22;42141;53.240;6.580;2022-12-18T17:42:09;-1.00;99.90
56234;DHT22;42141;53.240;6.580;2022-12-18T17:44:35;-0.90;99.90